Sylhet, Bangladesh
Current Conditions -  °F | °C
As of 2:20 PM on Thursday 29 Jan 2015 (Local Time) from VGHS Reporting Station
Haze Haze  
Wind Chill: 82°   Ceiling: Unl
Heat Index: 82°   Visibility: 2.5mi
Dew Point: 57°   Wind: 9mph
Humidity: 42%   Direction: 320°NW
Pressure: 29.91"   Gusts: NA
Location:  24.9°N, 91.88°E
Report Text: VGHS 290820Z 32008KT 4000 HZ NSC 28/14 Q1013 NOSIG
Loading
Personal Weather Stations






























Interactive Weather Map New forecast layout! Learn more

10-Day Weather Forecast

Advertisements
Track Severe Weather on mobile